Time;durP1;ratioP1;P1;durP2;ratioP2;P2;SDS_P1;SDS_P2;PMS_P1;PMS_P2;Temp;Humidity;BMP_temperature;BMP_pressure;BME280_temperature;BME280_humidity;BME280_pressure;Samples;Min_cycle;Max_cycle;Signal;HPM_P1;HPM_P2
2021/03/17 05:39:07;;;;;;;;;;;;;;;3.36;85.83;98679.23;1703239;83;20513;-40
2021/03/17 05:41:35;;;;;;;;;;;;;;;3.36;85.82;98680.53;1714215;83;20207;-40
2021/03/17 05:44:03;;;;;;;;;;;;;;;3.38;85.73;98684.01;1701253;83;20153;-41
2021/03/17 05:46:32;;;;;;;;;;;;;;;3.40;85.64;98688.31;1700192;83;20187;-36
2021/03/17 05:49:01;;;;;;;;;;;;;;;3.42;85.63;98686.61;1705783;83;20189;-39
2021/03/17 05:51:29;;;;;;;;;;;;;;;3.43;85.58;98684.45;1714954;83;20160;-39
2021/03/17 05:53:56;;;;;;;;;;;;;;;3.46;85.55;98693.50;1697407;83;20210;-34
2021/03/17 05:56:24;;;;;;;;;;;;;;;3.47;85.55;98696.52;1700941;83;20182;-34
2021/03/17 05:58:51;;;;;;;;;;;;;;;3.47;85.39;98693.06;1702146;82;20191;-34
2021/03/17 06:01:19;;;;;;;;;;;;;;;3.47;85.35;98695.66;1702140;83;20481;-34
2021/03/17 06:03:47;;;;;;;;;;;;;;;3.49;85.29;98698.27;1700869;83;20174;-34
2021/03/17 06:06:16;;;;;;;;;;;;;;;3.50;85.28;98701.28;1707092;83;20198;-37
2021/03/17 06:08:45;;;;;;;;;;;;;;;3.52;85.24;98698.26;1685374;83;20164;-34
2021/03/17 06:11:13;;;;;;;;;;;;;;;3.54;85.29;98700.41;1696656;82;20273;-35
2021/03/17 06:13:43;;;;;;;;;;;;;;;3.57;85.20;98699.14;1699918;83;20380;-36
2021/03/17 06:16:11;;;;;;;;;;;;;;;3.56;85.25;98702.16;1693029;83;20584;-39
2021/03/17 06:18:43;;;;;;;;;;;;;;;3.59;85.24;98704.73;1683443;83;20181;-40
2021/03/17 06:21:18;;;;;;;;;;;;;;;3.61;85.09;98703.47;1700883;83;20500;-34
2021/03/17 06:23:55;;;;;;;;;;;;;;;3.60;85.04;98706.48;1696468;82;20217;-34
2021/03/17 06:26:23;;;;;;;;;;;;;;;3.61;85.15;98704.77;1669487;84;20159;-35
2021/03/17 06:28:51;;;;;;;;;;;;;;;3.63;85.18;98705.19;1664035;84;20219;-35
2021/03/17 06:31:19;;;;;;;;;;;;;;;3.65;85.20;98701.30;1671384;84;20183;-34
2021/03/17 06:33:47;;;;;;;;;;;;;;;3.68;85.14;98704.77;1673095;83;20193;-34
2021/03/17 06:36:17;;;;;;;;;;;;;;;3.68;84.97;98699.59;1691656;83;20639;-35
2021/03/17 06:39:06;;;;;;;;;;;;;;;3.70;85.11;98697.01;1701679;83;20557;-39
2021/03/17 06:41:46;;;;;;;;;;;;;;;3.72;85.13;98700.05;1701354;82;20193;-33
2021/03/17 06:44:20;;;;;;;;;;;;;;;3.77;85.23;98701.75;1705369;82;20562;-35
2021/03/17 06:47:23;;;;;;;;;;;;;;;3.80;85.18;98702.64;1709187;82;20294;-35
2021/03/17 06:49:57;;;;;;;;;;;;;;;3.84;85.21;98698.34;1708538;82;20176;-38
2021/03/17 06:52:37;;;;;;;;;;;;;;;3.87;85.18;98697.90;1708093;82;20579;-35
2021/03/17 06:55:13;;;;;;;;;;;;;;;3.90;85.18;98700.51;1667451;84;20204;-40
2021/03/17 06:57:44;;;;;;;;;;;;;;;3.93;85.17;98694.45;1678259;83;20156;-38
2021/03/17 07:00:31;;;;;;;;;;;;;;;3.97;85.13;98694.91;1654629;85;20268;-38
2021/03/17 07:03:05;;;;;;;;;;;;;;;4.01;85.10;98699.23;1650802;85;20284;-38
2021/03/17 07:05:40;;;;;;;;;;;;;;;4.09;85.12;98690.16;1647233;86;20181;-34
2021/03/17 07:08:10;;;;;;;;;;;;;;;4.13;85.00;98694.49;1652731;85;20543;-39
2021/03/17 07:10:41;;;;;;;;;;;;;;;4.17;85.03;98691.02;1647069;85;20276;-39
2021/03/17 07:13:11;;;;;;;;;;;;;;;4.22;85.05;98693.18;1665684;84;20527;-40
2021/03/17 07:15:54;;;;;;;;;;;;;;;4.26;84.99;98693.62;1647782;84;20189;-34
2021/03/17 07:18:29;;;;;;;;;;;;;;;4.30;84.93;98701.83;1642547;84;20303;-39
2021/03/17 07:21:03;;;;;;;;;;;;;;;4.37;85.03;98703.55;1669256;84;20513;-40
2021/03/17 07:23:45;;;;;;;;;;;;;;;4.42;85.00;98699.67;1665370;84;20180;-35
2021/03/17 07:26:27;;;;;;;;;;;;;;;4.45;84.75;98700.51;1666448;84;20433;-40
2021/03/17 07:29:19;;;;;;;;;;;;;;;4.47;84.60;98701.39;1662808;84;20342;-39
2021/03/17 07:31:59;;;;;;;;;;;;;;;4.49;84.73;98700.08;1700694;82;20469;-39
2021/03/17 07:34:27;;;;;;;;;;;;;;;4.52;84.61;98705.24;1702235;83;20182;-39
2021/03/17 07:37:00;;;;;;;;;;;;;;;4.51;84.58;98707.41;1703397;82;20167;-39
2021/03/17 07:39:39;;;;;;;;;;;;;;;4.49;84.76;98702.67;1707876;82;20519;-38
2021/03/17 07:42:39;;;;;;;;;;;;;;;4.49;84.94;98704.83;1709843;82;20181;-38
2021/03/17 07:45:32;;;;;;;;;;;;;;;4.50;84.92;98700.52;1708932;82;20488;-39
2021/03/17 07:48:12;;;;;;;;;;;;;;;4.51;85.03;98706.97;1712463;82;20206;-38
2021/03/17 07:50:42;;;;;;;;;;;;;;;4.56;85.22;98700.94;1711966;82;20526;-39
2021/03/17 07:53:13;;;;;;;;;;;;;;;4.58;85.03;98706.56;1703337;82;20194;-38
2021/03/17 07:55:41;;;;;;;;;;;;;;;4.58;84.85;98707.86;1708120;82;20164;-34
2021/03/17 07:58:09;;;;;;;;;;;;;;;4.57;84.91;98702.22;1706282;82;20176;-39
2021/03/17 08:00:40;;;;;;;;;;;;;;;4.57;84.87;98705.25;1708986;82;20197;-39
2021/03/17 08:03:13;;;;;;;;;;;;;;;4.55;85.15;98709.14;1704729;82;20164;-34
2021/03/17 08:05:41;;;;;;;;;;;;;;;4.60;85.39;98713.03;1709681;82;20321;-33
2021/03/17 08:08:11;;;;;;;;;;;;;;;4.65;85.42;98709.57;1698478;82;20171;-39
2021/03/17 08:10:42;;;;;;;;;;;;;;;4.67;85.29;98706.97;1679443;83;20191;-40
2021/03/17 08:13:10;;;;;;;;;;;;;;;4.71;85.44;98706.11;1694879;82;20181;-37
2021/03/17 08:15:39;;;;;;;;;;;;;;;4.73;85.48;98704.36;1684956;82;20224;-34
2021/03/17 08:18:36;;;;;;;;;;;;;;;4.79;85.57;98703.91;1694432;83;20218;-35
2021/03/17 08:21:11;;;;;;;;;;;;;;;4.86;85.53;98695.69;1707610;82;20600;-37
2021/03/17 08:26:26;;;;;;;;;;;;;;;5.02;85.43;98701.27;1799216;78;20273;-34
2021/03/17 08:28:54;;;;;;;;;;;;;;;5.01;85.29;98699.98;1760550;80;20743;-35
2021/03/17 08:31:43;;;;;;;;;;;;;;;5.03;85.41;98697.80;1759522;81;20201;-33
2021/03/17 08:34:47;;;;;;;;;;;;;;;5.10;85.61;98700.37;1756925;80;20175;-38
2021/03/17 08:42:19;;;;;;;;;;;;;;;5.27;85.25;98703.33;1756479;80;20167;-40
2021/03/17 08:45:30;;;;;;;;;;;;;;;5.33;85.29;98706.33;1754932;80;20438;-38
2021/03/17 08:47:59;;;;;;;;;;;;;;;5.42;85.29;98708.04;1730584;81;20175;-39
2021/03/17 08:50:35;;;;;;;;;;;;;;;5.42;84.88;98711.49;1755157;81;20499;-39
2021/03/17 08:53:04;;;;;;;;;;;;;;;5.37;84.82;98711.95;1748281;81;20185;-39
2021/03/17 08:55:39;;;;;;;;;;;;;;;5.34;84.89;98706.79;1755737;81;20199;-39
2021/03/17 08:58:19;;;;;;;;;;;;;;;5.32;84.93;98716.28;1755799;80;20162;-35
2021/03/17 09:00:49;;;;;;;;;;;;;;;5.31;85.24;98714.13;1699918;82;20216;-40
2021/03/17 09:03:37;;;;;;;;;;;;;;;5.32;85.38;98721.03;1696938;83;20603;-42
2021/03/17 09:06:18;;;;;;;;;;;;;;;5.37;85.61;98721.45;1701078;83;20158;-39
2021/03/17 09:09:05;;;;;;;;;;;;;;;5.40;85.59;98723.62;1700601;83;20203;-40
2021/03/17 09:11:36;;;;;;;;;;;;;;;5.43;85.62;98720.99;1702991;82;20215;-34
2021/03/17 09:14:04;;;;;;;;;;;;;;;5.43;85.82;98718.84;1704193;82;20489;-39
2021/03/17 09:16:35;;;;;;;;;;;;;;;5.49;86.01;98713.63;1698713;83;20196;-42
2021/03/17 09:19:11;;;;;;;;;;;;;;;5.54;86.09;98720.95;1676306;83;20825;-35
2021/03/17 09:21:44;;;;;;;;;;;;;;;5.61;86.14;98717.01;1703365;83;20355;-39
2021/03/17 09:24:30;;;;;;;;;;;;;;;5.69;85.92;98716.99;1698300;82;20274;-39
2021/03/17 09:27:01;;;;;;;;;;;;;;;5.70;85.67;98718.70;1694333;83;20257;-34
2021/03/17 09:29:30;;;;;;;;;;;;;;;5.70;85.65;98725.64;1691665;83;20550;-39
2021/03/17 09:32:00;;;;;;;;;;;;;;;5.67;85.68;98721.75;1691468;83;20192;-39
2021/03/17 09:34:31;;;;;;;;;;;;;;;5.64;85.77;98720.48;1694023;83;20202;-39
2021/03/17 09:37:05;;;;;;;;;;;;;;;5.65;85.84;98726.09;1799551;77;20183;-39
2021/03/17 09:39:33;;;;;;;;;;;;;;;5.60;86.07;98735.19;1796684;78;20276;-40
2021/03/17 09:42:22;;;;;;;;;;;;;;;5.59;86.37;98728.28;1791045;78;20237;-41
2021/03/17 09:49:05;;;;;;;;;;;;;;;5.70;86.70;98736.02;1786967;78;20286;-40
2021/03/17 09:52:06;;;;;;;;;;;;;;;5.75;86.66;98733.83;1792293;78;20567;-38
2021/03/17 09:54:31;;;;;;;;;;;;;;;5.80;86.77;98732.07;1789757;78;20170;-40
2021/03/17 09:57:04;;;;;;;;;;;;;;;5.84;86.55;98736.34;1787732;78;20754;-39
2021/03/17 09:59:38;;;;;;;;;;;;;;;5.86;86.52;98734.63;1788184;78;20201;-40
2021/03/17 10:02:22;;;;;;;;;;;;;;;5.88;86.40;98734.17;1789807;78;20181;-34
2021/03/17 10:04:54;;;;;;;;;;;;;;;5.91;86.50;98730.72;1790619;78;20446;-36
2021/03/17 10:07:36;;;;;;;;;;;;;;;5.95;86.50;98734.16;1758058;78;20194;-37
2021/03/17 10:10:33;;;;;;;;;;;;;;;5.99;86.36;98736.74;1787744;78;20322;-49
2021/03/17 10:13:07;;;;;;;;;;;;;;;5.99;86.47;98731.55;1785484;78;20189;-36
2021/03/17 10:15:54;;;;;;;;;;;;;;;6.05;86.59;98728.05;1791391;78;20295;-34
2021/03/17 10:18:39;;;;;;;;;;;;;;;6.09;86.58;98737.55;1792134;78;20162;-33
2021/03/17 10:21:30;;;;;;;;;;;;;;;6.12;86.65;98742.27;1790747;78;20206;-40
2021/03/17 10:24:15;;;;;;;;;;;;;;;6.17;86.32;98734.89;1790014;78;20391;-39
2021/03/17 10:26:50;;;;;;;;;;;;;;;6.17;86.01;98737.05;1758250;78;20178;-40
2021/03/17 10:30:24;;;;;;;;;;;;;;;6.17;86.03;98732.30;1778244;78;20506;-40
2021/03/17 10:38:54;;;;;;;;;;;;;;;6.22;86.26;98734.43;1777453;78;20209;-41
2021/03/17 10:42:49;;;;;;;;;;;;;;;6.26;86.59;98730.91;1779241;79;20262;-38
2021/03/17 10:46:45;;;;;;;;;;;;;;;6.36;86.87;98729.54;1657207;84;20190;-35
2021/03/17 10:49:46;;;;;;;;;;;;;;;6.46;86.68;98735.97;1644211;85;20202;-37
2021/03/17 10:52:22;;;;;;;;;;;;;;;6.50;86.63;98735.08;1623428;86;20219;-40
2021/03/17 10:55:24;;;;;;;;;;;;;;;6.50;86.52;98744.17;1603020;87;20206;-39
2021/03/17 10:58:29;;;;;;;;;;;;;;;6.51;86.70;98740.70;1676756;84;20193;-34
2021/03/17 11:01:38;;;;;;;;;;;;;;;6.52;86.83;98737.22;1683139;84;20251;-40
2021/03/17 11:04:36;;;;;;;;;;;;;;;6.54;86.78;98743.25;1672669;84;20241;-41
2021/03/17 11:07:13;;;;;;;;;;;;;;;6.54;86.82;98744.55;1681859;84;20434;-40
2021/03/17 11:10:07;;;;;;;;;;;;;;;6.55;86.89;98739.77;1685152;84;20248;-40
2021/03/17 11:17:35;;;;;;;;;;;;;;;6.57;86.89;98744.54;1668596;84;20556;-34
2021/03/17 11:21:14;;;;;;;;;;;;;;;6.56;87.15;98744.13;1652347;85;21035;-35
2021/03/17 11:25:00;;;;;;;;;;;;;;;6.59;87.32;98737.14;1753016;81;20184;-40
2021/03/17 11:28:18;;;;;;;;;;;;;;;6.66;87.37;98740.55;1748118;81;20158;-35
2021/03/17 11:31:02;;;;;;;;;;;;;;;6.69;87.33;98739.23;1715864;82;20298;-36
2021/03/17 11:33:33;;;;;;;;;;;;;;;6.76;87.22;98740.03;1739964;81;20158;-40
2021/03/17 11:36:07;;;;;;;;;;;;;;;6.83;87.08;98746.89;1741792;81;20470;-42
2021/03/17 11:39:13;;;;;;;;;;;;;;;6.90;87.06;98740.78;1746315;81;20504;-41
2021/03/17 11:41:42;;;;;;;;;;;;;;;7.04;86.91;98741.93;1744817;81;20191;-40
2021/03/17 11:44:15;;;;;;;;;;;;;;;7.16;86.51;98737.45;1745336;81;20198;-41
2021/03/17 11:46:42;;;;;;;;;;;;;;;7.28;86.35;98739.05;1742134;81;20190;-40
2021/03/17 11:49:12;;;;;;;;;;;;;;;7.38;85.90;98738.52;1745874;81;20211;-41
2021/03/17 11:51:42;;;;;;;;;;;;;;;7.44;85.52;98739.75;1761216;79;20319;-40
2021/03/17 11:54:09;;;;;;;;;;;;;;;7.49;84.85;98737.95;1755336;79;20282;-40
2021/03/17 11:56:37;;;;;;;;;;;;;;;7.50;84.41;98736.20;1777129;79;20191;-36
2021/03/17 11:59:04;;;;;;;;;;;;;;;7.52;84.08;98738.34;1783435;79;20591;-35
2021/03/17 12:01:34;;;;;;;;;;;;;;;7.52;84.07;98735.30;1774584;79;20212;-35
2021/03/17 12:04:05;;;;;;;;;;;;;;;7.56;83.96;98738.29;1744243;79;20741;-35
2021/03/17 12:06:37;;;;;;;;;;;;;;;7.58;83.72;98733.06;1767287;79;20502;-35
2021/03/17 12:09:05;;;;;;;;;;;;;;;7.57;83.58;98733.50;1778368;79;20159;-34
2021/03/17 12:11:42;;;;;;;;;;;;;;;7.55;83.41;98739.17;1774694;79;20561;-35
2021/03/17 12:14:09;;;;;;;;;;;;;;;7.52;83.32;98738.34;1768841;79;20188;-35
2021/03/17 12:16:37;;;;;;;;;;;;;;;7.48;83.19;98738.84;1749597;79;20631;-39
2021/03/17 12:19:05;;;;;;;;;;;;;;;7.45;83.20;98738.86;1776107;79;20282;-39
2021/03/17 12:21:33;;;;;;;;;;;;;;;7.46;83.05;98735.37;1768043;79;20209;-35
2021/03/17 12:24:01;;;;;;;;;;;;;;;7.45;82.81;98741.46;1774317;79;20196;-40
2021/03/17 12:26:30;;;;;;;;;;;;;;;7.43;82.83;98741.48;1775344;79;20326;-37
2021/03/17 12:29:02;;;;;;;;;;;;;;;7.46;82.99;98735.37;1782559;78;20442;-34
2021/03/17 12:31:35;;;;;;;;;;;;;;;7.47;82.57;98733.19;1767139;79;20506;-38
2021/03/17 12:34:12;;;;;;;;;;;;;;;7.46;82.35;98731.02;1769228;79;20208;-34
2021/03/17 12:36:46;;;;;;;;;;;;;;;7.44;82.44;98728.89;1739352;79;20512;-35
2021/03/17 12:39:17;;;;;;;;;;;;;;;7.49;82.56;98715.83;1773143;79;20722;-34
2021/03/17 12:41:48;;;;;;;;;;;;;;;7.55;82.32;98722.70;1767331;79;20299;-40
2021/03/17 12:44:22;;;;;;;;;;;;;;;7.62;82.30;98729.55;1741269;79;20261;-34
2021/03/17 12:46:53;;;;;;;;;;;;;;;7.67;81.77;98732.95;1790193;78;20172;-35
2021/03/17 12:49:21;;;;;;;;;;;;;;;7.68;81.63;98733.37;1777018;79;20670;-34
2021/03/17 12:51:56;;;;;;;;;;;;;;;7.71;81.65;98743.31;1770445;79;20192;-33
2021/03/17 12:54:26;;;;;;;;;;;;;;;7.77;81.30;98740.17;1779892;79;20188;-37
2021/03/17 12:56:53;;;;;;;;;;;;;;;7.78;81.00;98745.39;1776155;79;20177;-40
2021/03/17 12:59:21;;;;;;;;;;;;;;;7.77;80.63;98744.97;1774765;79;20212;-40
2021/03/17 13:01:49;;;;;;;;;;;;;;;7.78;80.55;98745.39;1766987;79;20194;-40
2021/03/17 13:04:16;;;;;;;;;;;;;;;7.85;80.60;98744.42;1767378;79;20579;-39
2021/03/17 13:06:44;;;;;;;;;;;;;;;7.91;80.23;98749.98;1746672;81;20555;-35
2021/03/17 13:09:11;;;;;;;;;;;;;;;7.91;80.01;98749.98;1752580;81;20608;-35
2021/03/17 13:11:38;;;;;;;;;;;;;;;7.92;80.20;98754.30;1753658;81;20178;-40
2021/03/17 13:14:06;;;;;;;;;;;;;;;7.89;80.16;98746.11;1762594;81;20641;-40
2021/03/17 13:16:34;;;;;;;;;;;;;;;7.87;80.20;98751.75;1786679;79;20294;-40
2021/03/17 13:19:04;;;;;;;;;;;;;;;7.88;80.17;98762.59;1786778;79;20188;-39
2021/03/17 13:21:32;;;;;;;;;;;;;;;7.88;80.00;98757.38;1780757;79;20182;-39
2021/03/17 13:24:00;;;;;;;;;;;;;;;7.85;79.89;98761.34;1780403;79;20471;-35
2021/03/17 13:26:28;;;;;;;;;;;;;;;7.82;79.91;98763.11;1805379;79;20158;-40
2021/03/17 13:28:55;;;;;;;;;;;;;;;7.76;80.10;98761.45;1765979;81;20482;-40
2021/03/17 13:31:22;;;;;;;;;;;;;;;7.72;80.14;98768.91;1757826;81;20487;-39
2021/03/17 13:33:50;;;;;;;;;;;;;;;7.67;80.03;98762.89;1776397;81;20262;-34
2021/03/17 13:36:19;;;;;;;;;;;;;;;7.61;80.35;98764.27;1775973;81;20152;-36
2021/03/17 13:38:47;;;;;;;;;;;;;;;7.56;80.50;98769.96;1779689;81;20255;-39
2021/03/17 13:41:14;;;;;;;;;;;;;;;7.52;80.58;98767.83;1779454;81;20168;-39
2021/03/17 13:43:42;;;;;;;;;;;;;;;7.49;80.73;98769.62;1774826;81;20121;-39
2021/03/17 13:46:11;;;;;;;;;;;;;;;7.46;81.09;98766.16;1779778;81;20643;-35
2021/03/17 13:48:40;;;;;;;;;;;;;;;7.44;81.02;98772.27;1779797;81;20169;-35
2021/03/17 13:51:07;;;;;;;;;;;;;;;7.43;81.03;98767.95;1777614;81;20192;-35
2021/03/17 13:53:34;;;;;;;;;;;;;;;7.41;81.05;98769.69;1750763;81;20345;-35
2021/03/17 13:56:01;;;;;;;;;;;;;;;7.38;81.18;98773.64;1791143;79;20514;-36
2021/03/17 13:58:29;;;;;;;;;;;;;;;7.37;81.39;98774.53;1793975;79;20135;-39
2021/03/17 14:00:58;;;;;;;;;;;;;;;7.37;81.47;98777.98;1779927;79;20151;-34
2021/03/17 14:03:26;;;;;;;;;;;;;;;7.29;81.22;98787.59;1746121;81;20320;-39
2021/03/17 14:05:53;;;;;;;;;;;;;;;7.20;81.51;98782.52;1770224;81;20530;-39
2021/03/17 14:08:20;;;;;;;;;;;;;;;7.11;81.66;98782.15;1771146;81;20161;-38
2021/03/17 14:10:49;;;;;;;;;;;;;;;7.04;81.95;98784.84;1783808;79;20466;-39
2021/03/17 14:13:16;;;;;;;;;;;;;;;6.96;82.17;98786.22;1807007;79;20162;-39
2021/03/17 14:15:43;;;;;;;;;;;;;;;6.89;82.41;98783.23;1796897;79;20150;-36
2021/03/17 14:18:12;;;;;;;;;;;;;;;6.79;82.52;98787.67;1808288;79;20191;-34
2021/03/17 14:20:40;;;;;;;;;;;;;;;6.68;82.88;98791.23;1747341;81;20206;-35
2021/03/17 14:23:07;;;;;;;;;;;;;;;6.59;83.34;98793.02;1810431;79;20214;-34
2021/03/17 14:25:36;;;;;;;;;;;;;;;6.53;83.72;98789.16;1805920;79;20172;-39
2021/03/17 14:28:05;;;;;;;;;;;;;;;6.47;84.06;98788.35;1785839;79;20191;-39
2021/03/17 14:30:32;;;;;;;;;;;;;;;6.43;84.35;98794.00;1779913;79;20167;-39
2021/03/17 14:33:00;;;;;;;;;;;;;;;6.40;84.60;98796.19;1790080;79;20173;-39
2021/03/17 14:35:30;;;;;;;;;;;;;;;6.33;84.79;98796.26;1799351;79;20437;-39
2021/03/17 14:37:58;;;;;;;;;;;;;;;6.25;85.02;98797.58;1809526;79;20186;-35
2021/03/17 14:40:31;;;;;;;;;;;;;;;6.20;85.36;98798.48;1797411;79;20269;-39
2021/03/17 14:42:58;;;;;;;;;;;;;;;6.13;85.70;98801.12;1793851;79;20422;-35
2021/03/17 14:45:27;;;;;;;;;;;;;;;6.11;85.97;98804.61;1781542;79;20508;-36
2021/03/17 14:47:54;;;;;;;;;;;;;;;6.08;86.21;98805.91;1805100;79;20178;-35
2021/03/17 14:50:22;;;;;;;;;;;;;;;6.04;86.34;98799.89;1810354;79;20162;-39
2021/03/17 14:52:49;;;;;;;;;;;;;;;6.01;86.67;98799.03;1793410;79;20464;-40
2021/03/17 14:55:17;;;;;;;;;;;;;;;5.95;86.89;98808.16;1778210;79;20278;-39
2021/03/17 14:57:44;;;;;;;;;;;;;;;5.90;87.16;98802.08;1769750;80;20147;-39
2021/03/17 15:00:12;;;;;;;;;;;;;;;5.88;87.36;98807.29;1769233;80;20440;-40
2021/03/17 15:02:40;;;;;;;;;;;;;;;5.87;87.47;98806.44;1782866;80;20151;-37
2021/03/17 15:05:08;;;;;;;;;;;;;;;5.85;87.46;98808.15;1783803;80;20400;-35
2021/03/17 15:07:37;;;;;;;;;;;;;;;5.84;87.61;98806.43;1777950;79;20185;-39
2021/03/17 15:10:07;;;;;;;;;;;;;;;5.82;87.60;98811.22;1746119;80;20179;-39
2021/03/17 15:12:36;;;;;;;;;;;;;;;5.78;87.74;98810.79;1785798;79;20493;-35
2021/03/17 15:15:04;;;;;;;;;;;;;;;5.75;87.84;98812.98;1769313;80;20271;-35
2021/03/17 15:17:32;;;;;;;;;;;;;;;5.71;87.90;98812.98;1764257;80;20184;-35
2021/03/17 15:20:00;;;;;;;;;;;;;;;5.68;87.89;98820.77;1795731;79;20171;-34
2021/03/17 15:22:27;;;;;;;;;;;;;;;5.60;88.15;98815.62;1783501;79;20517;-39
2021/03/17 15:24:55;;;;;;;;;;;;;;;5.54;88.33;98825.58;1780172;80;20177;-35
2021/03/17 15:27:24;;;;;;;;;;;;;;;5.50;88.52;98829.48;1782591;80;20178;-39
2021/03/17 15:29:51;;;;;;;;;;;;;;;5.45;88.61;98841.19;1761289;80;20539;-35
2021/03/17 15:32:19;;;;;;;;;;;;;;;5.39;88.75;98835.13;1800693;78;20487;-39
2021/03/17 15:34:50;;;;;;;;;;;;;;;5.31;88.82;98837.75;1797031;80;20167;-40
2021/03/17 15:37:18;;;;;;;;;;;;;;;5.24;88.98;98840.79;1773052;79;20193;-35
2021/03/17 15:39:46;;;;;;;;;;;;;;;5.14;89.14;98839.50;1800710;79;20152;-40
2021/03/17 15:42:14;;;;;;;;;;;;;;;5.04;89.42;98838.64;1800653;79;20248;-39
2021/03/17 15:44:42;;;;;;;;;;;;;;;4.97;89.76;98843.41;1796761;80;20159;-36
2021/03/17 15:47:10;;;;;;;;;;;;;;;4.90;89.97;98849.47;1774693;80;20213;-40
2021/03/17 15:49:38;;;;;;;;;;;;;;;4.83;90.33;98849.91;1800659;78;20177;-39
2021/03/17 15:52:05;;;;;;;;;;;;;;;4.82;90.69;98853.80;1800672;79;20181;-40
2021/03/17 15:54:33;;;;;;;;;;;;;;;4.79;90.81;98863.28;1796824;80;20138;-40
2021/03/17 15:57:01;;;;;;;;;;;;;;;4.78;91.05;98866.73;1760100;80;20167;-36
2021/03/17 15:59:30;;;;;;;;;;;;;;;4.76;91.20;98873.66;1786763;79;20170;-35
2021/03/17 16:01:58;;;;;;;;;;;;;;;4.71;91.39;98875.38;1806951;79;20437;-35
2021/03/17 16:04:32;;;;;;;;;;;;;;;4.67;91.56;98877.95;1806999;79;20425;-36
2021/03/17 16:06:56;;;;;;;;;;;;;;;4.64;91.67;98877.94;1806219;79;20476;-35
2021/03/17 16:09:25;;;;;;;;;;;;;;;4.58;91.86;98878.83;1807008;79;20219;-39
2021/03/17 16:11:54;;;;;;;;;;;;;;;4.56;92.18;98883.55;1806800;79;20194;-36
2021/03/17 16:14:22;;;;;;;;;;;;;;;4.56;92.38;98881.82;1806863;79;20500;-37
2021/03/17 16:16:50;;;;;;;;;;;;;;;4.57;92.53;98887.86;1788569;79;20153;-35
2021/03/17 16:19:18;;;;;;;;;;;;;;;4.56;92.62;98887.00;1766616;81;20415;-36
2021/03/17 16:21:45;;;;;;;;;;;;;;;4.56;92.66;98892.19;1804033;79;20182;-36
2021/03/17 16:24:15;;;;;;;;;;;;;;;4.58;92.81;98894.77;1781205;79;20165;-39
2021/03/17 16:26:43;;;;;;;;;;;;;;;4.62;92.84;98896.52;1773690;79;20153;-36
2021/03/17 16:29:10;;;;;;;;;;;;;;;4.61;92.69;98894.79;1768653;81;20161;-36
2021/03/17 16:31:39;;;;;;;;;;;;;;;4.63;92.71;98900.39;1802917;79;20403;-36
2021/03/17 16:34:06;;;;;;;;;;;;;;;4.65;92.61;98905.59;1806421;79;20134;-35
2021/03/17 16:36:34;;;;;;;;;;;;;;;4.68;92.63;98905.59;1801477;79;20175;-39
2021/03/17 16:39:03;;;;;;;;;;;;;;;4.69;92.32;98904.72;1806604;79;20154;-41
2021/03/17 16:41:31;;;;;;;;;;;;;;;4.64;92.05;98899.55;1806853;79;20138;-36
2021/03/17 16:43:58;;;;;;;;;;;;;;;4.61;92.07;98906.45;1806880;79;20159;-37
2021/03/17 16:46:26;;;;;;;;;;;;;;;4.57;92.06;98908.16;1806743;79;20433;-40
2021/03/17 16:48:55;;;;;;;;;;;;;;;4.52;92.13;98910.76;1806964;79;20194;-39
2021/03/17 16:51:23;;;;;;;;;;;;;;;4.50;92.24;98907.28;1806975;79;20174;-34
2021/03/17 16:53:51;;;;;;;;;;;;;;;4.48;92.29;98912.03;1807091;79;20138;-40
2021/03/17 16:56:19;;;;;;;;;;;;;;;4.45;92.34;98913.31;1806732;79;20198;-41
2021/03/17 16:58:48;;;;;;;;;;;;;;;4.45;92.41;98919.34;1806631;79;20598;-40
2021/03/17 17:01:15;;;;;;;;;;;;;;;4.43;92.28;98923.67;1806895;79;20178;-40
2021/03/17 17:03:43;;;;;;;;;;;;;;;4.39;92.23;98925.81;1806816;79;20167;-35
2021/03/17 17:06:11;;;;;;;;;;;;;;;4.36;92.29;98934.02;1806757;79;20537;-35
2021/03/17 17:08:38;;;;;;;;;;;;;;;4.31;92.49;98938.31;1806849;79;20155;-36
2021/03/17 17:11:06;;;;;;;;;;;;;;;4.30;92.58;98942.63;1807033;79;20162;-40
2021/03/17 17:13:33;;;;;;;;;;;;;;;4.28;92.61;98945.62;1807040;79;20410;-40
2021/03/17 17:16:03;;;;;;;;;;;;;;;4.26;92.59;98952.53;1806833;79;20178;-40
2021/03/17 17:18:30;;;;;;;;;;;;;;;4.25;92.60;98957.28;1807056;79;20130;-40
2021/03/17 17:20:57;;;;;;;;;;;;;;;4.26;92.83;98955.12;1806761;79;20300;-35
